Time;durP1;ratioP1;P1;durP2;ratioP2;P2;SDS_P1;SDS_P2;PMS_P1;PMS_P2;Temp;Humidity;BMP_temperature;BMP_pressure;BME280_temperature;BME280_humidity;BME280_pressure;Samples;Min_cycle;Max_cycle;Signal;HPM_P1;HPM_P2
2022/06/30 00:02:41;;;;;;;17.85;3.08;;;;;;;21.06;86.61;100043.09;10377126;28;20092;-68
2022/06/30 00:07:42;;;;;;;15.55;2.78;;;;;;;21.06;87.33;100062.00;10376040;28;20111;-67
2022/06/30 00:12:43;;;;;;;20.00;2.97;;;;;;;20.90;88.63;100048.22;10375821;28;20037;-67
2022/06/30 00:17:44;;;;;;;12.60;2.13;;;;;;;20.69;89.15;100032.72;10376064;28;20053;-66
2022/06/30 00:22:45;;;;;;;7.63;2.30;;;;;;;20.78;89.68;100069.06;10391694;28;20038;-66
2022/06/30 00:27:47;;;;;;;11.68;2.30;;;;;;;20.68;90.16;100069.69;10375744;28;20042;-67
2022/06/30 00:32:48;;;;;;;11.55;2.25;;;;;;;20.64;90.61;100078.50;10373809;28;20044;-66
2022/06/30 00:37:49;;;;;;;14.45;2.63;;;;;;;20.56;91.00;100073.50;10374619;28;20042;-67
2022/06/30 00:42:49;;;;;;;15.63;2.72;;;;;;;20.52;91.44;100065.91;10374913;28;20508;-67
2022/06/30 00:47:50;;;;;;;14.05;2.60;;;;;;;20.48;92.12;100082.75;10395428;28;20042;-66
2022/06/30 00:52:52;;;;;;;13.13;2.53;;;;;;;20.44;92.79;100071.63;10373968;28;20042;-67
2022/06/30 00:57:56;;;;;;;9.45;2.40;;;;;;;20.28;93.98;100064.28;10390371;28;20517;-67
2022/06/30 01:02:58;;;;;;;13.48;2.17;;;;;;;19.81;93.77;99997.00;10415115;28;20043;-66
2022/06/30 01:08:00;;;;;;;16.67;2.80;;;;;;;20.22;94.36;100073.31;10413788;28;20084;-67
2022/06/30 01:13:01;;;;;;;12.45;2.28;;;;;;;20.19;94.04;100071.94;10387061;28;20636;-67
2022/06/30 01:18:02;;;;;;;13.45;2.35;;;;;;;20.15;94.21;100080.75;10374516;28;20113;-66
2022/06/30 01:23:05;;;;;;;20.45;3.58;;;;;;;20.15;94.73;100078.03;10373120;28;20049;-66
2022/06/30 01:28:05;;;;;;;10.90;2.83;;;;;;;20.03;94.40;100070.78;10388578;28;20497;-66
2022/06/30 01:33:06;;;;;;;54.35;4.30;;;;;;;19.15;94.43;99929.78;10372828;28;20046;-66
2022/06/30 01:38:07;;;;;;;17.35;2.65;;;;;;;20.15;94.37;100080.75;10371920;28;20045;-70
2022/06/30 01:43:11;;;;;;;16.10;3.40;;;;;;;20.17;94.19;100092.94;10373583;28;20073;-66
2022/06/30 01:48:12;;;;;;;16.98;2.97;;;;;;;20.17;94.23;100090.25;10372191;28;20050;-66
2022/06/30 01:53:12;;;;;;;15.75;3.00;;;;;;;20.08;94.24;100085.44;10372723;28;20408;-66
2022/06/30 01:58:13;;;;;;;10.90;2.50;;;;;;;20.18;94.25;100096.44;10372791;28;20046;-67
2022/06/30 02:03:14;;;;;;;14.02;2.55;;;;;;;20.12;94.90;100100.09;10372098;28;20038;-66
2022/06/30 02:08:15;;;;;;;15.05;2.67;;;;;;;19.98;95.36;100076.09;10371768;28;20049;-66
2022/06/30 02:13:16;;;;;;;13.77;2.83;;;;;;;20.21;95.76;100126.44;10372911;28;20042;-66
2022/06/30 02:18:16;;;;;;;13.15;2.88;;;;;;;20.28;95.98;100118.22;10372323;28;20124;-67
2022/06/30 02:23:17;;;;;;;16.30;3.30;;;;;;;20.38;96.02;100126.56;10371671;28;20052;-66
2022/06/30 02:28:18;;;;;;;18.63;3.13;;;;;;;20.49;95.98;100109.53;10371922;28;20042;-67
2022/06/30 02:33:19;;;;;;;11.82;3.05;;;;;;;20.47;95.55;100091.94;10372377;28;20042;-67
2022/06/30 02:38:19;;;;;;;9.57;3.10;;;;;;;20.59;95.50;100092.75;10371801;28;20045;-66
2022/06/30 02:43:20;;;;;;;11.02;2.50;;;;;;;20.95;95.74;100133.91;10372166;28;20053;-70
2022/06/30 02:48:21;;;;;;;12.93;3.28;;;;;;;21.00;96.26;100138.56;10373759;28;20521;-67
2022/06/30 02:53:23;;;;;;;21.42;3.60;;;;;;;21.07;96.89;100134.69;10378689;28;20046;-66
2022/06/30 02:58:24;;;;;;;15.13;3.72;;;;;;;21.10;97.48;100136.91;10379175;28;20069;-67
2022/06/30 03:03:24;;;;;;;17.90;4.18;;;;;;;20.37;97.69;100003.53;10379540;28;20041;-68
2022/06/30 03:08:25;;;;;;;21.38;3.75;;;;;;;21.14;98.82;100138.03;10379831;28;20073;-67
2022/06/30 03:13:26;;;;;;;21.88;4.10;;;;;;;20.36;99.30;99998.34;10378026;28;20065;-67
2022/06/30 03:18:27;;;;;;;17.35;3.42;;;;;;;20.44;99.08;100008.78;10377984;28;20041;-66
2022/06/30 03:23:28;;;;;;;17.58;3.50;;;;;;;21.12;98.95;100118.56;10378288;28;20184;-67
2022/06/30 03:28:29;;;;;;;18.90;3.88;;;;;;;20.58;98.78;100039.84;10376792;28;20133;-67
2022/06/30 03:33:31;;;;;;;10.52;3.40;;;;;;;21.24;98.55;100136.56;10377795;28;20042;-66
2022/06/30 03:38:32;;;;;;;15.30;3.17;;;;;;;21.08;98.25;100085.00;10376984;28;20084;-66
2022/06/30 03:43:32;;;;;;;15.10;3.40;;;;;;;21.55;97.47;100137.97;10377703;28;20135;-66
2022/06/30 03:48:35;;;;;;;20.52;3.83;;;;;;;20.16;96.69;99904.38;10376874;28;20049;-66
2022/06/30 03:53:36;;;;;;;24.38;3.45;;;;;;;21.68;96.34;100153.84;10377005;28;20034;-66
2022/06/30 03:58:37;;;;;;;17.02;3.63;;;;;;;21.63;95.92;100143.78;10415615;28;20413;-67
2022/06/30 04:03:37;;;;;;;13.10;2.90;;;;;;;21.69;95.70;100155.50;10413272;28;20038;-67
2022/06/30 04:08:38;;;;;;;16.52;3.33;;;;;;;21.71;95.05;100147.94;10410529;28;20037;-69
2022/06/30 04:13:39;;;;;;;12.93;3.03;;;;;;;21.94;93.64;100156.97;10400885;28;20046;-68
2022/06/30 04:18:40;;;;;;;16.88;3.72;;;;;;;22.21;92.42;100152.50;10415349;28;20465;-67
2022/06/30 04:23:41;;;;;;;17.73;3.17;;;;;;;22.61;89.32;100145.97;10410238;28;20475;-68
2022/06/30 04:28:42;;;;;;;25.40;3.80;;;;;;;22.92;87.58;100149.06;10411958;28;20045;-67
2022/06/30 04:33:42;;;;;;;16.88;3.45;;;;;;;22.54;85.64;100010.81;10414472;28;20046;-67
2022/06/30 04:38:43;;;;;;;23.63;3.65;;;;;;;22.58;82.95;99939.94;10406119;28;20037;-67
2022/06/30 04:43:44;;;;;;;19.27;3.03;;;;;;;24.60;78.78;100136.81;10411401;28;20092;-65
2022/06/30 04:48:45;;;;;;;21.60;3.53;;;;;;;25.10;75.13;100109.22;10411196;28;20048;-66
2022/06/30 04:53:46;;;;;;;26.55;4.05;;;;;;;25.83;71.59;100145.19;10415052;28;20041;-66
2022/06/30 04:58:47;;;;;;;17.23;3.03;;;;;;;26.16;69.34;100121.97;10414762;28;20120;-65
2022/06/30 05:03:48;;;;;;;18.85;3.08;;;;;;;26.21;68.11;100107.56;10429943;28;20038;-66
2022/06/30 05:08:49;;;;;;;15.10;3.03;;;;;;;26.56;67.27;100146.66;10415093;28;20041;-66
2022/06/30 05:13:50;;;;;;;25.70;3.63;;;;;;;26.26;66.78;100099.34;10415665;28;20415;-66
2022/06/30 05:18:50;;;;;;;26.08;4.00;;;;;;;26.64;66.50;100133.25;10413959;28;20037;-66
2022/06/30 05:29:10;;;;;;;23.27;3.60;;;;;;;26.46;65.61;100073.13;10413645;28;20048;-65
2022/06/30 05:34:11;;;;;;;21.83;4.07;;;;;;;27.12;64.93;100131.91;10413420;28;20340;-66
2022/06/30 05:39:12;;;;;;;23.63;3.97;;;;;;;26.84;64.34;100072.38;10413237;28;20413;-66
2022/06/30 05:44:13;;;;;;;32.25;4.18;;;;;;;27.26;63.81;100120.09;10414547;28;20061;-66
2022/06/30 05:49:14;;;;;;;21.00;4.65;;;;;;;27.28;62.79;100120.66;10413550;28;20520;-66
2022/06/30 05:54:16;;;;;;;100.53;7.43;;;;;;;27.56;62.67;100123.69;10412882;28;20072;-65
2022/06/30 05:59:17;;;;;;;29.30;4.22;;;;;;;27.02;61.37;100021.84;10413470;28;20042;-66
2022/06/30 06:04:18;;;;;;;43.60;5.18;;;;;;;27.59;60.69;100112.19;10412862;28;20386;-65
2022/06/30 06:09:19;;;;;;;24.13;4.53;;;;;;;27.64;59.78;100103.97;10413144;28;20053;-66
2022/06/30 06:14:20;;;;;;;37.63;5.03;;;;;;;27.16;58.40;99989.28;10413625;28;20046;-66
2022/06/30 06:19:22;;;;;;;35.65;4.38;;;;;;;27.80;58.17;100109.31;10412094;28;20128;-65
2022/06/30 06:24:22;;;;;;;23.00;3.92;;;;;;;27.60;56.22;100088.44;10392275;28;20080;-69
2022/06/30 06:29:23;;;;;;;24.13;4.28;;;;;;;27.04;56.07;100008.75;10380683;28;20480;-65
2022/06/30 06:34:24;;;;;;;23.35;4.50;;;;;;;27.27;56.42;100086.28;10386260;28;20044;-65
2022/06/30 06:39:25;;;;;;;24.55;3.92;;;;;;;26.88;56.79;99984.59;10389140;28;20045;-64
2022/06/30 06:44:26;;;;;;;22.30;3.85;;;;;;;27.64;56.71;100084.88;10419770;28;20061;-66
2022/06/30 06:49:27;;;;;;;37.08;4.60;;;;;;;27.40;55.42;100041.19;10419333;28;20416;-66
2022/06/30 06:54:28;;;;;;;12.25;3.33;;;;;;;27.94;54.19;100080.19;10419665;28;20052;-66
2022/06/30 06:59:29;;;;;;;26.90;4.70;;;;;;;28.04;53.58;100082.84;10419388;28;20531;-65
2022/06/30 07:04:30;;;;;;;20.70;3.80;;;;;;;27.14;53.27;99956.03;10419206;28;20038;-65
2022/06/30 07:09:31;;;;;;;28.40;3.47;;;;;;;28.00;53.45;100070.88;10419849;28;20041;-64
2022/06/30 07:14:31;;;;;;;20.45;3.67;;;;;;;28.22;53.53;100062.13;10419387;28;20381;-65
2022/06/30 07:19:32;;;;;;;21.90;4.13;;;;;;;28.22;52.43;100062.13;10419140;28;20140;-65
2022/06/30 07:24:33;;;;;;;17.42;3.22;;;;;;;28.49;52.25;100055.28;10418476;28;20460;-65
2022/06/30 07:29:34;;;;;;;13.65;2.78;;;;;;;28.77;50.00;100054.28;10419258;28;20073;-65
2022/06/30 07:34:35;;;;;;;16.70;3.40;;;;;;;28.37;48.82;99940.94;10417326;28;20037;-66
2022/06/30 07:39:36;;;;;;;21.15;3.75;;;;;;;28.65;48.70;99911.81;10418628;28;20041;-66
2022/06/30 07:44:37;;;;;;;18.27;3.40;;;;;;;29.03;48.07;99912.56;10416325;28;20119;-66
2022/06/30 07:49:40;;;;;;;27.50;3.97;;;;;;;29.89;48.11;99999.59;10417430;28;20092;-66
2022/06/30 07:54:41;;;;;;;18.00;3.88;;;;;;;29.75;47.17;99965.94;10418694;28;20489;-66
2022/06/30 07:59:42;;;;;;;12.52;3.50;;;;;;;29.89;46.94;100004.25;10417697;28;20037;-66
2022/06/30 08:04:42;;;;;;;16.77;2.85;;;;;;;29.89;46.17;99982.34;10416947;28;20087;-65
2022/06/30 08:09:43;;;;;;;14.18;3.10;;;;;;;30.10;44.47;99999.16;10417183;28;20409;-66
2022/06/30 08:14:44;;;;;;;13.70;2.95;;;;;;;30.03;43.88;99989.44;10417377;28;20037;-66
2022/06/30 08:19:45;;;;;;;25.73;3.13;;;;;;;29.74;44.14;99901.34;10416321;28;20432;-66
2022/06/30 08:24:45;;;;;;;19.52;3.65;;;;;;;30.35;42.83;100006.84;10416170;28;20045;-66
2022/06/30 08:29:46;;;;;;;15.07;3.17;;;;;;;29.54;41.50;99839.59;10416522;28;20132;-65
2022/06/30 08:34:47;;;;;;;14.73;3.47;;;;;;;30.66;41.23;99995.16;10408869;28;20045;-66
2022/06/30 08:45:17;;;;;;;11.32;2.90;;;;;;;31.03;39.99;99983.06;10405837;28;20041;-66
2022/06/30 08:50:18;;;;;;;11.25;2.80;;;;;;;31.19;39.46;99967.00;10400796;28;20041;-66
2022/06/30 08:55:27;;;;;;;7.82;2.47;;;;;;;31.32;37.86;99968.84;10407588;28;20029;-65
2022/06/30 09:00:29;;;;;;;7.75;2.78;;;;;;;31.48;37.48;99957.47;10407234;28;20441;-66
2022/06/30 09:05:30;;;;;;;7.95;2.45;;;;;;;31.69;37.45;99954.97;10406187;28;20041;-66
2022/06/30 09:10:31;;;;;;;13.85;3.25;;;;;;;31.50;37.84;99903.03;10409761;28;20043;-66
2022/06/30 09:15:38;;;;;;;10.98;2.67;;;;;;;30.83;37.51;99775.94;10403300;28;20072;-66
2022/06/30 09:20:40;;;;;;;8.75;3.05;;;;;;;31.81;36.58;99942.22;10401212;28;20452;-66
2022/06/30 09:25:41;;;;;;;7.80;2.40;;;;;;;31.80;35.65;99950.75;10409566;28;20040;-67
2022/06/30 09:30:42;;;;;;;7.88;2.33;;;;;;;31.41;35.65;99883.00;10402632;28;20320;-68
2022/06/30 09:35:43;;;;;;;12.73;2.45;;;;;;;31.90;36.77;99953.25;10397500;28;20049;-67
2022/06/30 09:41:04;;;;;;;12.05;2.35;;;;;;;31.69;35.84;99931.06;10403278;28;20049;-66
2022/06/30 09:46:05;;;;;;;10.13;2.30;;;;;;;31.18;35.84;99817.22;10406829;28;20049;-66
2022/06/30 09:51:06;;;;;;;12.00;2.30;;;;;;;31.53;35.81;99825.53;10406137;28;20307;-67
2022/06/30 09:56:15;;;;;;;9.05;2.60;;;;;;;32.20;34.67;99917.75;10405708;28;20029;-66
2022/06/30 10:01:16;;;;;;;35.78;3.38;;;;;;;32.19;36.51;99869.38;10403669;28;20049;-66
2022/06/30 10:06:18;;;;;;;8.65;2.50;;;;;;;32.42;35.76;99906.56;10407358;28;20409;-66
2022/06/30 10:11:19;;;;;;;17.05;3.22;;;;;;;31.99;36.19;99840.66;10396207;28;20539;-66
2022/06/30 10:16:21;;;;;;;12.32;2.75;;;;;;;32.28;35.34;99890.25;10390418;28;20520;-66
2022/06/30 10:21:22;;;;;;;12.97;2.50;;;;;;;32.31;35.56;99882.47;10376128;28;20044;-66
2022/06/30 10:31:48;;;;;;;27.80;2.88;;;;;;;32.34;35.98;99881.81;10372789;28;20482;-74
2022/06/30 10:37:16;;;;;;;6.97;2.55;;;;;;;32.37;34.69;99870.19;10372070;28;20069;-75
2022/06/30 10:42:57;;;;;;;12.80;2.63;;;;;;;32.57;34.16;99864.03;10385790;28;20068;-74
2022/06/30 10:48:05;;;;;;;12.05;3.08;;;;;;;32.57;34.11;99872.28;10386513;28;20505;-74
2022/06/30 10:53:09;;;;;;;15.55;2.85;;;;;;;32.68;34.93;99867.25;10427511;28;20319;-72
2022/06/30 10:58:11;;;;;;;7.35;2.28;;;;;;;32.13;33.65;99764.34;10412449;28;20063;-74
2022/06/30 11:03:33;;;;;;;8.20;2.28;;;;;;;32.86;32.67;99844.06;10413192;28;20131;-73
2022/06/30 11:08:36;;;;;;;6.43;2.40;;;;;;;32.15;33.41;99731.84;10412322;28;20050;-74
2022/06/30 11:13:37;;;;;;;14.55;3.03;;;;;;;32.83;33.69;99836.47;10419917;28;20060;-75
2022/06/30 11:18:38;;;;;;;8.30;2.83;;;;;;;32.73;34.62;99828.59;10419338;28;20069;-75
2022/06/30 11:23:47;;;;;;;11.10;2.50;;;;;;;33.03;33.37;99831.41;10419078;28;20037;-75
2022/06/30 11:28:48;;;;;;;8.75;2.80;;;;;;;32.97;33.16;99789.47;10419159;28;20046;-74
2022/06/30 11:33:58;;;;;;;7.32;2.42;;;;;;;32.94;32.73;99776.38;10419576;28;20083;-74
2022/06/30 11:39:04;;;;;;;5.55;2.30;;;;;;;33.18;33.26;99803.31;10419230;28;20444;-73
2022/06/30 11:44:05;;;;;;;10.15;2.40;;;;;;;32.15;32.01;99670.59;10419280;28;20093;-75
2022/06/30 11:49:06;;;;;;;8.57;2.28;;;;;;;33.14;32.58;99794.09;10418107;28;20128;-75
2022/06/30 11:54:07;;;;;;;8.70;2.25;;;;;;;32.90;32.36;99734.16;10418019;28;20444;-74
2022/06/30 11:59:08;;;;;;;8.48;2.40;;;;;;;33.08;32.33;99746.69;10417729;28;20135;-74
2022/06/30 12:04:18;;;;;;;13.48;2.60;;;;;;;33.65;31.86;99786.66;10417849;28;20540;-75
2022/06/30 12:09:19;;;;;;;13.25;3.10;;;;;;;33.88;31.85;99795.38;10415677;28;20045;-74
2022/06/30 12:14:19;;;;;;;8.30;2.08;;;;;;;33.75;31.26;99755.16;10415186;28;20045;-74
2022/06/30 12:19:22;;;;;;;8.18;2.28;;;;;;;32.86;31.90;99681.75;10406834;28;20042;-73
2022/06/30 12:24:24;;;;;;;;;;;;;;;33.11;31.30;99778.25;10414675;28;20167;-75
2022/06/30 12:29:27;;;;;;;14.45;2.72;;;;;;;31.25;33.63;99576.09;10415658;28;20067;-75
2022/06/30 12:34:28;;;;;;;12.73;2.50;;;;;;;32.37;32.98;99782.22;10416562;28;20484;-75
2022/06/30 12:39:32;;;;;;;12.70;2.40;;;;;;;32.28;33.35;99785.81;10415086;28;20115;-73
2022/06/30 12:44:36;;;;;;;8.35;2.33;;;;;;;32.08;32.63;99759.03;10417092;28;20053;-74
2022/06/30 12:49:38;;;;;;;13.82;2.60;;;;;;;32.17;33.75;99772.75;10415777;28;20557;-75
2022/06/30 12:54:58;;;;;;;10.13;2.00;;;;;;;31.97;32.91;99670.63;10415829;28;20048;-76
2022/06/30 13:00:00;;;;;;;16.92;3.10;;;;;;;32.42;32.82;99760.84;10415098;28;20357;-72
2022/06/30 13:05:01;;;;;;;10.77;2.33;;;;;;;32.11;32.81;99774.06;10414702;28;20540;-77
2022/06/30 13:10:03;;;;;;;14.32;2.67;;;;;;;31.81;34.19;99755.47;10414440;28;20507;-75
2022/06/30 13:15:04;;;;;;;8.53;2.23;;;;;;;31.83;33.59;99758.72;10415068;28;20049;-76
2022/06/30 13:20:05;;;;;;;17.48;2.40;;;;;;;31.65;33.54;99718.66;10414668;28;20037;-76
2022/06/30 13:25:06;;;;;;;9.50;2.33;;;;;;;31.94;32.95;99682.28;10412544;28;20037;-74
2022/06/30 13:30:07;;;;;;;4.13;2.00;;;;;;;31.77;32.52;99636.44;10411330;28;20053;-74
2022/06/30 13:35:08;;;;;;;8.73;2.60;;;;;;;32.23;31.74;99732.97;10408997;28;20040;-75
2022/06/30 13:40:09;;;;;;;6.63;2.03;;;;;;;32.26;32.59;99732.31;10410590;28;20057;-73
2022/06/30 13:45:10;;;;;;;6.70;2.03;;;;;;;32.14;33.06;99667.03;10414315;28;20068;-75
2022/06/30 13:50:11;;;;;;;14.13;2.30;;;;;;;32.42;32.50;99735.31;10411837;28;20512;-76
2022/06/30 13:55:12;;;;;;;14.27;2.50;;;;;;;32.02;32.52;99732.84;10411513;28;20227;-74
2022/06/30 14:00:13;;;;;;;6.28;1.92;;;;;;;31.07;32.65;99638.38;10408695;28;20049;-72
2022/06/30 14:05:14;;;;;;;36.63;2.78;;;;;;;31.45;32.62;99719.31;10411854;28;20049;-75
2022/06/30 14:10:15;;;;;;;13.73;2.40;;;;;;;30.59;33.29;99611.03;10405250;28;20426;-75
2022/06/30 14:15:16;;;;;;;11.02;2.53;;;;;;;31.21;33.54;99714.25;10390157;28;20092;-74
2022/06/30 14:20:17;;;;;;;9.80;2.13;;;;;;;31.25;33.39;99724.25;10399012;28;20427;-74
2022/06/30 14:25:18;;;;;;;12.48;2.33;;;;;;;31.37;32.98;99715.41;10402673;28;20080;-74
2022/06/30 14:30:19;;;;;;;14.93;2.33;;;;;;;31.01;33.04;99683.56;10411501;28;20037;-75
2022/06/30 14:35:20;;;;;;;11.05;2.53;;;;;;;31.04;33.66;99712.28;10412664;28;20033;-76
2022/06/30 14:40:21;;;;;;;9.15;2.70;;;;;;;30.97;33.55;99703.72;10412293;28;20451;-74
2022/06/30 14:45:24;;;;;;;30.05;3.35;;;;;;;30.10;33.96;99539.81;10416492;28;20045;-73
2022/06/30 14:50:24;;;;;;;11.20;2.40;;;;;;;31.38;33.69;99747.22;10419329;28;20396;-77
2022/06/30 14:55:25;;;;;;;25.15;3.35;;;;;;;30.41;34.18;99643.88;10419663;28;20041;-74
2022/06/30 15:00:26;;;;;;;29.20;4.35;;;;;;;30.59;35.24;99707.78;10399769;28;20030;-74
2022/06/30 15:05:30;;;;;;;9.68;2.28;;;;;;;30.61;34.64;99732.16;10395285;28;20049;-73
2022/06/30 15:10:31;;;;;;;12.20;2.28;;;;;;;30.13;34.41;99659.69;10411609;28;20468;-74
2022/06/30 15:15:31;;;;;;;11.02;2.25;;;;;;;30.84;34.39;99758.38;10399948;28;20084;-75
2022/06/30 15:20:32;;;;;;;26.58;3.00;;;;;;;30.95;34.70;99756.16;10377861;28;20100;-73
2022/06/30 15:25:33;;;;;;;59.50;33.25;;;;;;;30.96;34.47;99754.22;10377922;28;20034;-74
2022/06/30 15:30:34;;;;;;;98.78;32.40;;;;;;;30.95;35.09;99741.63;10379067;28;20073;-75
2022/06/30 15:35:35;;;;;;;51.88;8.15;;;;;;;30.82;35.09;99735.94;10377174;28;20037;-72
2022/06/30 15:40:40;;;;;;;51.40;11.77;;;;;;;30.51;35.27;99718.69;10378089;28;20073;-74
2022/06/30 15:45:41;;;;;;;124.93;48.22;;;;;;;30.51;35.52;99741.44;10377611;28;20037;-75
2022/06/30 15:50:42;;;;;;;39.10;18.85;;;;;;;30.09;35.40;99720.88;10376645;28;20077;-74
2022/06/30 15:55:42;;;;;;;41.28;21.25;;;;;;;30.09;35.09;99743.59;10376510;28;20088;-75
2022/06/30 16:00:43;;;;;;;22.85;10.23;;;;;;;29.95;35.45;99748.34;10374953;28;20416;-74
2022/06/30 16:05:44;;;;;;;39.50;9.57;;;;;;;29.80;35.90;99744.88;10377442;28;20405;-75
2022/06/30 16:10:45;;;;;;;21.23;5.63;;;;;;;29.55;36.05;99746.22;10375784;28;20045;-74
2022/06/30 16:15:47;;;;;;;21.30;4.35;;;;;;;29.37;35.80;99758.13;10376540;28;20042;-72
2022/06/30 16:20:47;;;;;;;14.63;2.50;;;;;;;29.30;35.87;99765.97;10376076;28;20096;-75
2022/06/30 16:25:48;;;;;;;10.30;2.00;;;;;;;29.13;36.01;99767.41;10375860;28;20386;-74
2022/06/30 16:30:49;;;;;;;10.57;2.33;;;;;;;28.89;36.63;99756.66;10375234;28;20057;-74
2022/06/30 16:35:50;;;;;;;17.25;2.42;;;;;;;28.75;36.99;99747.66;10375909;28;20044;-75
2022/06/30 16:40:51;;;;;;;14.15;2.17;;;;;;;28.79;37.26;99778.72;10374479;28;20149;-75
2022/06/30 16:45:53;;;;;;;16.10;2.50;;;;;;;27.57;37.80;99617.03;10375130;28;20456;-75
2022/06/30 16:50:53;;;;;;;22.42;2.90;;;;;;;27.86;38.11;99672.22;10385224;28;20073;-66
2022/06/30 16:55:55;;;;;;;62.83;4.07;;;;;;;28.19;38.80;99752.19;10414843;28;20501;-66
2022/06/30 17:00:56;;;;;;;35.95;3.28;;;;;;;28.00;38.79;99746.00;10407998;28;20084;-66
2022/06/30 17:05:59;;;;;;;11.65;2.10;;;;;;;27.95;39.10;99751.53;10388914;28;20064;-66
2022/06/30 17:11:15;;;;;;;14.85;2.10;;;;;;;28.02;39.31;99795.63;10373381;28;20501;-66
2022/06/30 17:16:18;;;;;;;16.33;2.30;;;;;;;27.91;39.48;99805.06;10383168;28;20131;-66
2022/06/30 17:21:18;;;;;;;12.27;2.17;;;;;;;27.48;39.90;99748.63;10411138;28;20552;-66
2022/06/30 17:26:21;;;;;;;14.50;2.42;;;;;;;27.66;39.94;99807.03;10414236;28;20091;-66
2022/06/30 17:31:22;;;;;;;16.92;2.58;;;;;;;27.59;40.03;99803.06;10413914;28;20045;-66
2022/06/30 17:36:23;;;;;;;12.07;2.20;;;;;;;27.57;40.64;99822.44;10410799;28;20048;-66
2022/06/30 17:41:24;;;;;;;10.02;1.95;;;;;;;27.38;40.67;99797.09;10411066;28;20057;-65
2022/06/30 17:46:25;;;;;;;9.88;2.00;;;;;;;27.22;40.93;99789.09;10411346;28;20038;-67
2022/06/30 17:51:25;;;;;;;13.93;1.70;;;;;;;27.07;40.85;99781.06;10410919;28;20048;-64
2022/06/30 17:56:26;;;;;;;12.77;2.17;;;;;;;26.70;41.02;99746.34;10408485;28;20052;-66
2022/06/30 18:01:31;;;;;;;12.75;2.17;;;;;;;27.24;43.33;99856.97;10408875;28;20037;-66
2022/06/30 18:11:52;;;;;;;19.10;2.55;;;;;;;26.89;47.65;99866.31;10413178;28;20079;-66
2022/06/30 18:16:53;;;;;;;15.10;2.60;;;;;;;26.65;49.63;99872.53;10410339;28;20465;-66
2022/06/30 18:21:54;;;;;;;7.22;2.55;;;;;;;26.19;51.25;99846.44;10416174;28;20038;-66
2022/06/30 18:26:55;;;;;;;9.65;2.13;;;;;;;26.02;52.70;99881.41;10419266;28;20090;-65
2022/06/30 18:31:56;;;;;;;13.10;2.40;;;;;;;25.10;53.94;99789.34;10430268;28;20432;-66
2022/06/30 18:36:57;;;;;;;7.40;2.05;;;;;;;24.66;54.94;99756.63;10418066;28;20095;-69
2022/06/30 18:41:59;;;;;;;13.93;2.78;;;;;;;25.22;56.10;99884.22;10418660;28;20060;-66
2022/06/30 18:47:01;;;;;;;15.13;2.53;;;;;;;25.39;56.85;99928.16;10418016;28;20042;-66
2022/06/30 18:52:03;;;;;;;4.47;2.00;;;;;;;25.21;57.51;99932.28;10417930;28;20393;-66
2022/06/30 18:57:06;;;;;;;14.15;2.47;;;;;;;25.00;58.95;99931.47;10416805;28;20518;-67
2022/06/30 19:02:07;;;;;;;13.50;2.50;;;;;;;24.72;58.80;99916.56;10418658;28;20612;-66
2022/06/30 19:07:10;;;;;;;11.48;2.47;;;;;;;24.52;59.79;99928.22;10397386;28;20398;-66
2022/06/30 19:12:11;;;;;;;9.20;2.65;;;;;;;24.79;60.20;99976.88;10390754;28;20053;-66
2022/06/30 19:17:12;;;;;;;12.18;2.40;;;;;;;24.78;60.56;99971.72;10420211;28;20045;-66
2022/06/30 19:22:13;;;;;;;11.50;2.78;;;;;;;24.64;60.86;99963.28;10418292;28;20079;-67
2022/06/30 19:27:14;;;;;;;7.82;2.53;;;;;;;23.21;61.60;99725.06;10419419;28;20056;-66
2022/06/30 19:32:17;;;;;;;11.20;2.40;;;;;;;24.39;63.05;99928.75;10418230;28;20095;-66
2022/06/30 19:37:19;;;;;;;11.73;2.55;;;;;;;24.35;62.81;99941.22;10418119;28;20041;-66
2022/06/30 19:42:29;;;;;;;8.43;2.28;;;;;;;24.17;63.04;99925.44;10419116;28;20103;-67
2022/06/30 19:47:30;;;;;;;10.07;2.50;;;;;;;23.93;63.27;99909.63;10418088;28;20037;-66
2022/06/30 19:52:31;;;;;;;10.02;2.58;;;;;;;23.08;62.97;99777.00;10418481;28;20045;-67
2022/06/30 19:57:32;;;;;;;8.85;2.13;;;;;;;23.55;62.92;99862.84;10417473;28;20102;-66
2022/06/30 20:13:11;;;;;;;10.27;2.58;;;;;;;23.60;61.96;99887.28;10416808;28;20504;-66
2022/06/30 20:18:12;;;;;;;9.88;2.50;;;;;;;23.50;62.08;99891.81;10416895;28;20050;-66
2022/06/30 20:23:13;;;;;;;20.08;2.58;;;;;;;22.56;62.11;99742.59;10417158;28;20058;-68
2022/06/30 20:28:14;;;;;;;9.20;1.98;;;;;;;23.27;61.96;99864.06;10417335;28;20037;-66
2022/06/30 20:33:15;;;;;;;11.35;2.90;;;;;;;22.39;62.13;99737.34;10417073;28;20052;-66
2022/06/30 20:38:15;;;;;;;15.32;2.33;;;;;;;22.36;61.87;99742.47;10415916;28;20038;-66
2022/06/30 20:43:16;;;;;;;10.02;2.13;;;;;;;22.40;61.85;99760.59;10416592;28;20061;-66
2022/06/30 20:53:36;;;;;;;5.57;2.05;;;;;;;23.04;62.25;99881.56;10374886;28;20041;-66
2022/06/30 20:58:37;;;;;;;6.85;2.25;;;;;;;22.25;61.97;99771.31;10374539;28;20038;-66
2022/06/30 21:03:38;;;;;;;7.60;1.88;;;;;;;22.01;60.79;99736.47;10373853;28;20513;-66
2022/06/30 21:08:39;;;;;;;5.85;1.80;;;;;;;21.78;60.41;99715.22;10373832;28;20045;-67
2022/06/30 21:13:40;;;;;;;19.45;2.08;;;;;;;22.71;60.53;99871.84;10373902;28;20046;-66
2022/06/30 21:18:42;;;;;;;9.73;2.05;;;;;;;21.87;60.46;99757.75;10389074;28;20050;-66
2022/06/30 21:23:44;;;;;;;5.30;1.90;;;;;;;22.49;60.65;99877.31;10373198;28;20120;-66
2022/06/30 21:28:45;;;;;;;5.03;1.70;;;;;;;21.89;60.53;99769.09;10373772;28;20042;-66
2022/06/30 21:33:48;;;;;;;3.30;1.70;;;;;;;22.49;60.60;99864.59;10373940;28;20037;-67
2022/06/30 21:38:50;;;;;;;5.57;1.60;;;;;;;22.33;60.46;99850.13;10373430;28;20493;-66
2022/06/30 21:43:52;;;;;;;7.78;1.77;;;;;;;22.50;59.99;99887.09;10373576;28;20061;-66
2022/06/30 21:48:53;;;;;;;4.32;1.80;;;;;;;22.46;60.16;99867.81;10372502;28;20520;-66
2022/06/30 21:53:54;;;;;;;6.72;1.67;;;;;;;22.36;60.36;99867.75;10387328;28;20045;-66
2022/06/30 21:58:55;;;;;;;4.63;1.58;;;;;;;21.67;60.99;99767.56;10388124;28;20509;-66
2022/06/30 22:03:56;;;;;;;6.18;1.98;;;;;;;22.07;62.33;99862.56;10372550;28;20045;-66
2022/06/30 22:09:01;;;;;;;8.63;1.50;;;;;;;20.95;62.26;99724.31;10372492;28;20048;-66
2022/06/30 22:14:05;;;;;;;4.88;1.77;;;;;;;21.58;63.52;99849.09;10372453;28;20107;-66
2022/06/30 22:19:05;;;;;;;6.05;2.00;;;;;;;21.56;64.79;99859.31;10387630;28;20180;-66
2022/06/30 22:24:08;;;;;;;7.97;2.40;;;;;;;21.31;66.92;99845.47;10372777;28;20048;-66
2022/06/30 22:29:09;;;;;;;4.97;1.80;;;;;;;21.10;66.19;99831.69;10371989;28;20046;-66
2022/06/30 22:34:10;;;;;;;6.35;1.85;;;;;;;21.10;66.47;99852.50;10372443;28;20061;-66
2022/06/30 22:39:13;;;;;;;9.63;1.90;;;;;;;21.10;67.84;99860.59;10387036;28;20041;-66
2022/06/30 22:44:15;;;;;;;12.48;1.95;;;;;;;20.97;68.33;99857.19;10372479;28;20062;-68
2022/06/30 22:49:16;;;;;;;19.27;2.17;;;;;;;20.85;68.00;99852.94;10371882;28;20049;-67
2022/06/30 22:54:18;;;;;;;8.57;2.55;;;;;;;20.86;67.18;99850.00;10371008;28;20049;-65
2022/06/30 22:59:18;;;;;;;49.85;4.05;;;;;;;20.73;67.76;99847.63;10370998;28;20680;-66
2022/06/30 23:04:19;;;;;;;4.88;2.05;;;;;;;19.85;69.02;99715.13;10372181;28;20041;-66
2022/06/30 23:09:20;;;;;;;6.20;1.92;;;;;;;20.55;69.87;99837.09;10378680;28;20044;-65
2022/06/30 23:14:21;;;;;;;14.75;2.30;;;;;;;20.29;69.98;99826.69;10378862;28;20041;-66
2022/06/30 23:19:21;;;;;;;7.32;2.03;;;;;;;20.27;70.38;99855.78;10378547;28;20042;-66
2022/06/30 23:24:22;;;;;;;8.15;2.50;;;;;;;20.11;71.55;99831.50;10378052;28;20529;-66
2022/06/30 23:29:24;;;;;;;12.88;5.07;;;;;;;20.04;72.54;99832.47;10378610;28;20128;-65
2022/06/30 23:34:25;;;;;;;11.57;4.53;;;;;;;19.31;72.35;99731.66;10377542;28;20053;-65
2022/06/30 23:39:25;;;;;;;11.70;4.28;;;;;;;19.14;71.96;99699.31;10377309;28;20053;-66
2022/06/30 23:44:27;;;;;;;13.48;6.70;;;;;;;19.77;72.96;99815.25;10377810;28;20145;-66